sensor_id;sensor_type;location;lat;lon;timestamp;temperature;humidity
10536;DHT22;5316;49.538;8.352;2023-07-22T00:00:02;19.90;1.00
10536;DHT22;5316;49.538;8.352;2023-07-22T00:02:31;19.90;1.00
10536;DHT22;5316;49.538;8.352;2023-07-22T00:04:58;19.70;1.00
10536;DHT22;5316;49.538;8.352;2023-07-22T00:07:25;19.60;1.00
10536;DHT22;5316;49.538;8.352;2023-07-22T00:09:52;19.50;99.90
10536;DHT22;5316;49.538;8.352;2023-07-22T00:12:20;19.30;1.00
10536;DHT22;5316;49.538;8.352;2023-07-22T00:14:51;19.30;99.90
10536;DHT22;5316;49.538;8.352;2023-07-22T00:17:18;19.30;45.60
10536;DHT22;5316;49.538;8.352;2023-07-22T00:19:46;19.30;1.00
10536;DHT22;5316;49.538;8.352;2023-07-22T00:22:13;19.30;1.00
10536;DHT22;5316;49.538;8.352;2023-07-22T00:24:41;19.40;1.00
10536;DHT22;5316;49.538;8.352;2023-07-22T00:27:07;19.40;1.00
10536;DHT22;5316;49.538;8.352;2023-07-22T00:29:36;19.30;99.90
10536;DHT22;5316;49.538;8.352;2023-07-22T00:32:05;19.30;99.90
10536;DHT22;5316;49.538;8.352;2023-07-22T00:34:32;19.30;1.00
10536;DHT22;5316;49.538;8.352;2023-07-22T00:37:00;19.20;1.00
10536;DHT22;5316;49.538;8.352;2023-07-22T00:39:27;19.20;1.00
10536;DHT22;5316;49.538;8.352;2023-07-22T00:41:54;19.20;45.50
10536;DHT22;5316;49.538;8.352;2023-07-22T00:44:21;19.20;21.60
10536;DHT22;5316;49.538;8.352;2023-07-22T00:46:52;19.20;93.90
10536;DHT22;5316;49.538;8.352;2023-07-22T00:49:20;19.10;1.00
10536;DHT22;5316;49.538;8.352;2023-07-22T00:51:48;19.10;1.00
10536;DHT22;5316;49.538;8.352;2023-07-22T00:54:15;19.00;99.90
10536;DHT22;5316;49.538;8.352;2023-07-22T00:56:43;19.00;93.70
10536;DHT22;5316;49.538;8.352;2023-07-22T00:59:11;18.90;1.00
10536;DHT22;5316;49.538;8.352;2023-07-22T01:01:40;18.90;24.60
10536;DHT22;5316;49.538;8.352;2023-07-22T01:04:08;18.80;11.10
10536;DHT22;5316;49.538;8.352;2023-07-22T01:06:36;18.70;99.90
10536;DHT22;5316;49.538;8.352;2023-07-22T01:09:05;18.70;99.90
10536;DHT22;5316;49.538;8.352;2023-07-22T01:11:34;18.70;99.90
10536;DHT22;5316;49.538;8.352;2023-07-22T01:14:02;18.70;99.90
10536;DHT22;5316;49.538;8.352;2023-07-22T01:16:29;18.70;99.90
10536;DHT22;5316;49.538;8.352;2023-07-22T01:18:57;18.70;10.00
10536;DHT22;5316;49.538;8.352;2023-07-22T01:21:27;18.80;10.00
10536;DHT22;5316;49.538;8.352;2023-07-22T01:23:56;18.80;1.00
10536;DHT22;5316;49.538;8.352;2023-07-22T01:26:23;18.90;1.00
10536;DHT22;5316;49.538;8.352;2023-07-22T01:28:50;18.90;1.00
10536;DHT22;5316;49.538;8.352;2023-07-22T01:31:17;18.90;99.90
10536;DHT22;5316;49.538;8.352;2023-07-22T01:33:44;18.90;99.90
10536;DHT22;5316;49.538;8.352;2023-07-22T01:36:11;18.90;99.90
10536;DHT22;5316;49.538;8.352;2023-07-22T01:38:38;18.90;99.90
10536;DHT22;5316;49.538;8.352;2023-07-22T01:41:06;18.90;1.00
10536;DHT22;5316;49.538;8.352;2023-07-22T01:43:35;18.90;1.00
10536;DHT22;5316;49.538;8.352;2023-07-22T01:46:02;19.00;1.00
10536;DHT22;5316;49.538;8.352;2023-07-22T01:48:30;19.00;1.00
10536;DHT22;5316;49.538;8.352;2023-07-22T01:50:57;19.00;1.00
10536;DHT22;5316;49.538;8.352;2023-07-22T01:53:24;19.00;99.90
10536;DHT22;5316;49.538;8.352;2023-07-22T01:55:51;19.00;99.90
10536;DHT22;5316;49.538;8.352;2023-07-22T01:58:19;19.10;99.90
10536;DHT22;5316;49.538;8.352;2023-07-22T02:00:49;19.10;99.90
10536;DHT22;5316;49.538;8.352;2023-07-22T02:03:16;19.10;99.90
10536;DHT22;5316;49.538;8.352;2023-07-22T02:05:43;19.10;99.90
10536;DHT22;5316;49.538;8.352;2023-07-22T02:08:10;19.20;99.90
10536;DHT22;5316;49.538;8.352;2023-07-22T02:10:37;19.20;99.90
10536;DHT22;5316;49.538;8.352;2023-07-22T02:13:04;19.20;1.00
10536;DHT22;5316;49.538;8.352;2023-07-22T02:15:32;19.00;1.00
10536;DHT22;5316;49.538;8.352;2023-07-22T02:18:00;18.90;99.90
10536;DHT22;5316;49.538;8.352;2023-07-22T02:20:26;18.80;62.80
10536;DHT22;5316;49.538;8.352;2023-07-22T02:22:54;18.70;99.90
10536;DHT22;5316;49.538;8.352;2023-07-22T02:25:21;18.60;1.00
10536;DHT22;5316;49.538;8.352;2023-07-22T02:27:48;18.60;1.00
10536;DHT22;5316;49.538;8.352;2023-07-22T02:30:16;18.60;15.00
10536;DHT22;5316;49.538;8.352;2023-07-22T02:32:44;18.60;90.00
10536;DHT22;5316;49.538;8.352;2023-07-22T02:35:11;18.60;99.90
10536;DHT22;5316;49.538;8.352;2023-07-22T02:37:38;18.50;99.90
10536;DHT22;5316;49.538;8.352;2023-07-22T02:40:06;18.60;99.90
10536;DHT22;5316;49.538;8.352;2023-07-22T02:42:36;18.60;99.90
10536;DHT22;5316;49.538;8.352;2023-07-22T02:45:03;18.60;99.90
10536;DHT22;5316;49.538;8.352;2023-07-22T02:47:33;18.60;99.90
10536;DHT22;5316;49.538;8.352;2023-07-22T02:50:02;18.70;99.90
10536;DHT22;5316;49.538;8.352;2023-07-22T02:52:30;18.70;99.90
10536;DHT22;5316;49.538;8.352;2023-07-22T02:55:07;18.80;77.50
10536;DHT22;5316;49.538;8.352;2023-07-22T02:57:36;18.90;99.90
10536;DHT22;5316;49.538;8.352;2023-07-22T03:00:04;18.90;99.90
10536;DHT22;5316;49.538;8.352;2023-07-22T03:02:33;18.80;75.50
10536;DHT22;5316;49.538;8.352;2023-07-22T03:05:02;18.80;78.10
10536;DHT22;5316;49.538;8.352;2023-07-22T03:07:33;18.80;99.90
10536;DHT22;5316;49.538;8.352;2023-07-22T03:10:00;18.70;99.90
10536;DHT22;5316;49.538;8.352;2023-07-22T03:12:27;18.70;99.90
10536;DHT22;5316;49.538;8.352;2023-07-22T03:14:55;18.70;99.90
10536;DHT22;5316;49.538;8.352;2023-07-22T03:17:22;18.60;99.90
10536;DHT22;5316;49.538;8.352;2023-07-22T03:19:48;18.60;99.90
10536;DHT22;5316;49.538;8.352;2023-07-22T03:22:18;18.60;99.90
10536;DHT22;5316;49.538;8.352;2023-07-22T03:24:45;18.60;99.90
10536;DHT22;5316;49.538;8.352;2023-07-22T03:27:13;18.60;99.90
10536;DHT22;5316;49.538;8.352;2023-07-22T03:29:42;18.40;99.90
10536;DHT22;5316;49.538;8.352;2023-07-22T03:32:09;18.40;99.90
10536;DHT22;5316;49.538;8.352;2023-07-22T03:34:36;18.40;99.90
10536;DHT22;5316;49.538;8.352;2023-07-22T03:37:03;18.30;99.90
10536;DHT22;5316;49.538;8.352;2023-07-22T03:39:31;18.20;99.90
10536;DHT22;5316;49.538;8.352;2023-07-22T03:41:57;18.20;99.90
10536;DHT22;5316;49.538;8.352;2023-07-22T03:44:24;18.20;99.90
10536;DHT22;5316;49.538;8.352;2023-07-22T03:46:54;18.10;99.90
10536;DHT22;5316;49.538;8.352;2023-07-22T03:49:20;17.90;99.90
10536;DHT22;5316;49.538;8.352;2023-07-22T03:51:47;17.80;1.00
10536;DHT22;5316;49.538;8.352;2023-07-22T03:54:14;17.80;1.00
10536;DHT22;5316;49.538;8.352;2023-07-22T03:56:42;17.80;1.00
10536;DHT22;5316;49.538;8.352;2023-07-22T03:59:09;17.80;1.00
10536;DHT22;5316;49.538;8.352;2023-07-22T04:01:36;17.80;99.90
10536;DHT22;5316;49.538;8.352;2023-07-22T04:04:03;17.80;99.90
10536;DHT22;5316;49.538;8.352;2023-07-22T04:06:30;17.80;1.00
10536;DHT22;5316;49.538;8.352;2023-07-22T04:08:57;17.80;1.00
10536;DHT22;5316;49.538;8.352;2023-07-22T04:11:25;17.80;1.00
10536;DHT22;5316;49.538;8.352;2023-07-22T04:13:54;17.80;1.00
10536;DHT22;5316;49.538;8.352;2023-07-22T04:16:20;17.80;1.00
10536;DHT22;5316;49.538;8.352;2023-07-22T04:18:47;17.80;1.00
10536;DHT22;5316;49.538;8.352;2023-07-22T04:21:14;17.80;1.00
10536;DHT22;5316;49.538;8.352;2023-07-22T04:23:41;17.80;1.00
10536;DHT22;5316;49.538;8.352;2023-07-22T04:26:09;17.90;1.00
10536;DHT22;5316;49.538;8.352;2023-07-22T04:44:10;18.20;1.00
10536;DHT22;5316;49.538;8.352;2023-07-22T04:46:47;18.30;1.00
10536;DHT22;5316;49.538;8.352;2023-07-22T04:49:20;18.40;1.00
10536;DHT22;5316;49.538;8.352;2023-07-22T04:51:50;18.40;1.00
10536;DHT22;5316;49.538;8.352;2023-07-22T04:54:18;18.40;1.00
10536;DHT22;5316;49.538;8.352;2023-07-22T04:56:48;18.40;99.90
10536;DHT22;5316;49.538;8.352;2023-07-22T04:59:17;18.40;99.90
10536;DHT22;5316;49.538;8.352;2023-07-22T05:01:45;18.40;99.90
10536;DHT22;5316;49.538;8.352;2023-07-22T05:04:12;18.40;99.90
10536;DHT22;5316;49.538;8.352;2023-07-22T05:06:42;18.40;99.90
10536;DHT22;5316;49.538;8.352;2023-07-22T05:09:09;18.30;99.90
10536;DHT22;5316;49.538;8.352;2023-07-22T05:11:39;18.30;99.90
10536;DHT22;5316;49.538;8.352;2023-07-22T05:14:06;18.30;99.90
10536;DHT22;5316;49.538;8.352;2023-07-22T05:16:37;18.30;99.90
10536;DHT22;5316;49.538;8.352;2023-07-22T05:19:04;18.30;99.90
10536;DHT22;5316;49.538;8.352;2023-07-22T05:21:34;18.30;1.00
10536;DHT22;5316;49.538;8.352;2023-07-22T05:24:02;18.30;99.90
10536;DHT22;5316;49.538;8.352;2023-07-22T05:26:31;18.30;99.90
10536;DHT22;5316;49.538;8.352;2023-07-22T05:28:58;18.20;99.90
10536;DHT22;5316;49.538;8.352;2023-07-22T05:31:26;18.30;99.90
10536;DHT22;5316;49.538;8.352;2023-07-22T05:33:55;18.20;99.90
10536;DHT22;5316;49.538;8.352;2023-07-22T05:36:23;18.30;99.90
10536;DHT22;5316;49.538;8.352;2023-07-22T05:38:52;18.30;99.90
10536;DHT22;5316;49.538;8.352;2023-07-22T05:41:23;18.30;99.90
10536;DHT22;5316;49.538;8.352;2023-07-22T05:43:50;18.20;99.90
10536;DHT22;5316;49.538;8.352;2023-07-22T06:09:19;19.20;99.90
10536;DHT22;5316;49.538;8.352;2023-07-22T06:18:08;19.40;99.90
10536;DHT22;5316;49.538;8.352;2023-07-22T07:25:01;20.50;1.00
10536;DHT22;5316;49.538;8.352;2023-07-22T07:27:28;20.60;1.00
10536;DHT22;5316;49.538;8.352;2023-07-22T07:29:56;20.70;1.00
10536;DHT22;5316;49.538;8.352;2023-07-22T07:32:24;20.60;1.00
10536;DHT22;5316;49.538;8.352;2023-07-22T07:34:52;20.50;1.00
10536;DHT22;5316;49.538;8.352;2023-07-22T07:37:20;20.50;1.00
10536;DHT22;5316;49.538;8.352;2023-07-22T07:39:52;20.60;1.00
10536;DHT22;5316;49.538;8.352;2023-07-22T07:42:21;20.80;99.90
10536;DHT22;5316;49.538;8.352;2023-07-22T07:44:48;20.90;99.90
10536;DHT22;5316;49.538;8.352;2023-07-22T07:47:15;21.00;1.00
10536;DHT22;5316;49.538;8.352;2023-07-22T07:49:43;21.00;1.00
10536;DHT22;5316;49.538;8.352;2023-07-22T07:52:17;21.00;99.90
10536;DHT22;5316;49.538;8.352;2023-07-22T07:58:00;20.90;1.00
10536;DHT22;5316;49.538;8.352;2023-07-22T08:00:30;20.80;99.90
10536;DHT22;5316;49.538;8.352;2023-07-22T08:02:57;20.90;99.90
10536;DHT22;5316;49.538;8.352;2023-07-22T08:05:25;20.90;99.90
10536;DHT22;5316;49.538;8.352;2023-07-22T08:07:52;20.90;99.90
10536;DHT22;5316;49.538;8.352;2023-07-22T08:10:20;21.00;99.90
10536;DHT22;5316;49.538;8.352;2023-07-22T08:12:49;21.00;99.90
10536;DHT22;5316;49.538;8.352;2023-07-22T08:15:21;21.10;1.00
10536;DHT22;5316;49.538;8.352;2023-07-22T08:18:26;21.30;99.90
10536;DHT22;5316;49.538;8.352;2023-07-22T08:20:54;21.30;19.10
10536;DHT22;5316;49.538;8.352;2023-07-22T08:23:22;21.40;1.00
10536;DHT22;5316;49.538;8.352;2023-07-22T08:25:49;21.40;99.90
10536;DHT22;5316;49.538;8.352;2023-07-22T08:28:36;21.40;1.00
10536;DHT22;5316;49.538;8.352;2023-07-22T08:31:06;21.40;99.90
10536;DHT22;5316;49.538;8.352;2023-07-22T08:33:34;21.50;99.90
10536;DHT22;5316;49.538;8.352;2023-07-22T08:36:02;21.60;1.00
10536;DHT22;5316;49.538;8.352;2023-07-22T08:38:29;21.60;99.90
10536;DHT22;5316;49.538;8.352;2023-07-22T08:40:57;21.70;99.90
10536;DHT22;5316;49.538;8.352;2023-07-22T08:43:25;21.70;53.10
10536;DHT22;5316;49.538;8.352;2023-07-22T08:46:00;21.70;1.00
10536;DHT22;5316;49.538;8.352;2023-07-22T09:09:22;22.00;99.90
10536;DHT22;5316;49.538;8.352;2023-07-22T09:11:51;22.00;1.00
10536;DHT22;5316;49.538;8.352;2023-07-22T09:14:19;22.10;99.90
10536;DHT22;5316;49.538;8.352;2023-07-22T09:16:48;22.20;99.90
10536;DHT22;5316;49.538;8.352;2023-07-22T09:19:16;22.30;1.00
10536;DHT22;5316;49.538;8.352;2023-07-22T09:21:44;22.40;1.00
10536;DHT22;5316;49.538;8.352;2023-07-22T09:24:27;22.40;1.00
10536;DHT22;5316;49.538;8.352;2023-07-22T09:26:59;22.50;99.90
10536;DHT22;5316;49.538;8.352;2023-07-22T09:32:35;22.60;1.00
10536;DHT22;5316;49.538;8.352;2023-07-22T09:35:04;22.60;1.00
10536;DHT22;5316;49.538;8.352;2023-07-22T09:37:39;22.80;1.00
10536;DHT22;5316;49.538;8.352;2023-07-22T09:43:25;22.90;99.90
10536;DHT22;5316;49.538;8.352;2023-07-22T09:45:56;22.90;1.00
10536;DHT22;5316;49.538;8.352;2023-07-22T09:48:39;23.00;42.40
10536;DHT22;5316;49.538;8.352;2023-07-22T09:51:16;23.00;7.90
10536;DHT22;5316;49.538;8.352;2023-07-22T09:53:58;23.10;1.00
10536;DHT22;5316;49.538;8.352;2023-07-22T09:56:26;23.30;1.00
10536;DHT22;5316;49.538;8.352;2023-07-22T09:58:55;23.40;1.00
10536;DHT22;5316;49.538;8.352;2023-07-22T10:01:24;23.50;1.00
10536;DHT22;5316;49.538;8.352;2023-07-22T10:03:54;23.60;99.90
10536;DHT22;5316;49.538;8.352;2023-07-22T10:06:22;23.80;99.90
10536;DHT22;5316;49.538;8.352;2023-07-22T10:08:51;24.00;99.90
10536;DHT22;5316;49.538;8.352;2023-07-22T10:11:18;24.00;99.90
10536;DHT22;5316;49.538;8.352;2023-07-22T10:13:46;24.10;99.90
10536;DHT22;5316;49.538;8.352;2023-07-22T10:16:15;24.10;99.90
10536;DHT22;5316;49.538;8.352;2023-07-22T10:18:42;24.00;99.90
10536;DHT22;5316;49.538;8.352;2023-07-22T10:21:10;24.00;99.90
10536;DHT22;5316;49.538;8.352;2023-07-22T10:23:38;24.10;99.90
10536;DHT22;5316;49.538;8.352;2023-07-22T10:26:05;24.20;80.10
10536;DHT22;5316;49.538;8.352;2023-07-22T16:28:07;29.00;99.90
10536;DHT22;5316;49.538;8.352;2023-07-22T16:30:34;29.10;99.90
10536;DHT22;5316;49.538;8.352;2023-07-22T16:33:01;28.90;99.90
10536;DHT22;5316;49.538;8.352;2023-07-22T16:35:28;29.30;99.90
10536;DHT22;5316;49.538;8.352;2023-07-22T16:37:56;29.40;99.90
10536;DHT22;5316;49.538;8.352;2023-07-22T16:40:25;29.60;99.90
10536;DHT22;5316;49.538;8.352;2023-07-22T16:42:52;29.60;99.90
10536;DHT22;5316;49.538;8.352;2023-07-22T16:45:21;29.70;99.90
10536;DHT22;5316;49.538;8.352;2023-07-22T16:47:48;29.70;99.90
10536;DHT22;5316;49.538;8.352;2023-07-22T16:50:15;29.90;99.90
10536;DHT22;5316;49.538;8.352;2023-07-22T16:52:42;30.00;99.90
10536;DHT22;5316;49.538;8.352;2023-07-22T16:55:09;30.10;99.90
10536;DHT22;5316;49.538;8.352;2023-07-22T16:57:37;29.90;99.90
10536;DHT22;5316;49.538;8.352;2023-07-22T17:00:07;29.90;99.90
10536;DHT22;5316;49.538;8.352;2023-07-22T17:02:42;29.80;99.90
10536;DHT22;5316;49.538;8.352;2023-07-22T17:05:09;29.70;99.90
10536;DHT22;5316;49.538;8.352;2023-07-22T17:07:37;29.50;99.90
10536;DHT22;5316;49.538;8.352;2023-07-22T17:10:05;29.30;99.90
10536;DHT22;5316;49.538;8.352;2023-07-22T17:12:32;29.30;99.90
10536;DHT22;5316;49.538;8.352;2023-07-22T17:15:00;29.00;99.90
10536;DHT22;5316;49.538;8.352;2023-07-22T17:17:27;28.70;99.90
10536;DHT22;5316;49.538;8.352;2023-07-22T17:19:55;28.60;99.90
10536;DHT22;5316;49.538;8.352;2023-07-22T17:22:23;28.30;99.90
10536;DHT22;5316;49.538;8.352;2023-07-22T17:24:50;28.40;99.90
10536;DHT22;5316;49.538;8.352;2023-07-22T17:27:17;28.50;99.90
10536;DHT22;5316;49.538;8.352;2023-07-22T17:29:44;28.40;99.90
10536;DHT22;5316;49.538;8.352;2023-07-22T17:32:11;28.80;99.90
10536;DHT22;5316;49.538;8.352;2023-07-22T17:34:48;29.10;99.90
10536;DHT22;5316;49.538;8.352;2023-07-22T17:37:16;29.10;99.90
10536;DHT22;5316;49.538;8.352;2023-07-22T17:39:43;29.00;99.90
10536;DHT22;5316;49.538;8.352;2023-07-22T17:42:10;29.20;99.90
10536;DHT22;5316;49.538;8.352;2023-07-22T17:44:37;29.30;99.90
10536;DHT22;5316;49.538;8.352;2023-07-22T17:47:04;29.00;99.90
10536;DHT22;5316;49.538;8.352;2023-07-22T17:49:32;28.90;99.90
10536;DHT22;5316;49.538;8.352;2023-07-22T17:51:58;29.10;99.90
10536;DHT22;5316;49.538;8.352;2023-07-22T17:54:27;29.30;99.90
10536;DHT22;5316;49.538;8.352;2023-07-22T17:56:54;29.50;99.90
10536;DHT22;5316;49.538;8.352;2023-07-22T17:59:21;29.70;99.90
10536;DHT22;5316;49.538;8.352;2023-07-22T18:01:48;29.70;99.90
10536;DHT22;5316;49.538;8.352;2023-07-22T18:04:15;29.60;99.90
10536;DHT22;5316;49.538;8.352;2023-07-22T18:06:42;29.40;99.90
10536;DHT22;5316;49.538;8.352;2023-07-22T18:09:09;29.40;99.90
10536;DHT22;5316;49.538;8.352;2023-07-22T18:11:38;29.50;99.90
10536;DHT22;5316;49.538;8.352;2023-07-22T18:14:05;29.30;99.90
10536;DHT22;5316;49.538;8.352;2023-07-22T18:16:35;29.20;99.90
10536;DHT22;5316;49.538;8.352;2023-07-22T18:19:02;29.10;99.90
10536;DHT22;5316;49.538;8.352;2023-07-22T18:21:29;29.00;99.90
10536;DHT22;5316;49.538;8.352;2023-07-22T18:23:57;28.90;99.90
10536;DHT22;5316;49.538;8.352;2023-07-22T18:26:24;28.80;99.90
10536;DHT22;5316;49.538;8.352;2023-07-22T18:28:53;28.60;99.90
10536;DHT22;5316;49.538;8.352;2023-07-22T18:31:19;27.80;99.90
10536;DHT22;5316;49.538;8.352;2023-07-22T18:33:47;27.30;99.90
10536;DHT22;5316;49.538;8.352;2023-07-22T18:36:15;26.90;99.90
10536;DHT22;5316;49.538;8.352;2023-07-22T18:38:42;26.70;99.90
10536;DHT22;5316;49.538;8.352;2023-07-22T18:41:10;26.50;99.90
10536;DHT22;5316;49.538;8.352;2023-07-22T18:46:50;26.10;1.00
10536;DHT22;5316;49.538;8.352;2023-07-22T18:49:20;26.00;1.00
10536;DHT22;5316;49.538;8.352;2023-07-22T18:55:09;25.70;1.00
10536;DHT22;5316;49.538;8.352;2023-07-22T18:57:37;25.50;1.00
10536;DHT22;5316;49.538;8.352;2023-07-22T19:00:05;25.50;1.00
10536;DHT22;5316;49.538;8.352;2023-07-22T19:02:34;25.30;1.00
10536;DHT22;5316;49.538;8.352;2023-07-22T19:05:01;25.30;1.00
10536;DHT22;5316;49.538;8.352;2023-07-22T19:07:28;25.30;1.00
10536;DHT22;5316;49.538;8.352;2023-07-22T19:09:55;25.20;1.00
10536;DHT22;5316;49.538;8.352;2023-07-22T19:12:42;25.20;1.00
10536;DHT22;5316;49.538;8.352;2023-07-22T19:15:10;25.10;1.00
10536;DHT22;5316;49.538;8.352;2023-07-22T19:17:39;25.00;1.00
10536;DHT22;5316;49.538;8.352;2023-07-22T19:20:07;24.90;1.00
10536;DHT22;5316;49.538;8.352;2023-07-22T19:22:35;24.80;1.00
10536;DHT22;5316;49.538;8.352;2023-07-22T19:25:02;24.80;1.00
10536;DHT22;5316;49.538;8.352;2023-07-22T19:27:29;24.70;1.00
10536;DHT22;5316;49.538;8.352;2023-07-22T19:29:58;24.60;1.00
10536;DHT22;5316;49.538;8.352;2023-07-22T19:52:57;24.20;1.00
10536;DHT22;5316;49.538;8.352;2023-07-22T19:55:44;24.20;1.00
10536;DHT22;5316;49.538;8.352;2023-07-22T19:58:23;24.10;1.00
10536;DHT22;5316;49.538;8.352;2023-07-22T21:26:56;22.60;1.00
10536;DHT22;5316;49.538;8.352;2023-07-22T21:29:23;22.60;1.00
10536;DHT22;5316;49.538;8.352;2023-07-22T21:31:50;22.60;1.00
10536;DHT22;5316;49.538;8.352;2023-07-22T21:34:17;22.60;1.00
10536;DHT22;5316;49.538;8.352;2023-07-22T21:36:43;22.60;1.00
10536;DHT22;5316;49.538;8.352;2023-07-22T21:39:10;22.60;1.00
10536;DHT22;5316;49.538;8.352;2023-07-22T21:41:37;22.60;1.00
10536;DHT22;5316;49.538;8.352;2023-07-22T21:44:05;22.60;1.00
10536;DHT22;5316;49.538;8.352;2023-07-22T21:46:32;22.60;1.00
10536;DHT22;5316;49.538;8.352;2023-07-22T21:48:59;22.60;1.00
10536;DHT22;5316;49.538;8.352;2023-07-22T21:51:26;22.60;1.00
10536;DHT22;5316;49.538;8.352;2023-07-22T21:53:53;22.60;1.00
10536;DHT22;5316;49.538;8.352;2023-07-22T21:56:20;22.60;1.00
10536;DHT22;5316;49.538;8.352;2023-07-22T21:58:46;22.60;1.00
10536;DHT22;5316;49.538;8.352;2023-07-22T22:01:14;22.60;1.00
10536;DHT22;5316;49.538;8.352;2023-07-22T22:03:41;22.60;1.00
10536;DHT22;5316;49.538;8.352;2023-07-22T22:06:08;22.60;1.00
10536;DHT22;5316;49.538;8.352;2023-07-22T22:08:34;22.60;1.00
10536;DHT22;5316;49.538;8.352;2023-07-22T22:11:03;22.50;1.00
10536;DHT22;5316;49.538;8.352;2023-07-22T22:13:30;22.50;1.00
10536;DHT22;5316;49.538;8.352;2023-07-22T22:15:58;22.50;1.00
10536;DHT22;5316;49.538;8.352;2023-07-22T22:18:26;22.40;1.00
10536;DHT22;5316;49.538;8.352;2023-07-22T22:20:53;22.40;1.00
10536;DHT22;5316;49.538;8.352;2023-07-22T22:23:20;22.30;1.00
10536;DHT22;5316;49.538;8.352;2023-07-22T22:25:47;22.30;1.00
10536;DHT22;5316;49.538;8.352;2023-07-22T22:28:13;22.30;1.00
10536;DHT22;5316;49.538;8.352;2023-07-22T22:30:40;22.30;1.00
10536;DHT22;5316;49.538;8.352;2023-07-22T22:33:07;22.20;1.00
10536;DHT22;5316;49.538;8.352;2023-07-22T22:35:35;22.20;1.00
10536;DHT22;5316;49.538;8.352;2023-07-22T22:38:01;22.20;1.00
10536;DHT22;5316;49.538;8.352;2023-07-22T22:40:28;22.10;1.00
10536;DHT22;5316;49.538;8.352;2023-07-22T22:42:55;22.10;1.00
10536;DHT22;5316;49.538;8.352;2023-07-22T22:45:22;22.00;1.00
10536;DHT22;5316;49.538;8.352;2023-07-22T22:47:48;21.90;1.00
10536;DHT22;5316;49.538;8.352;2023-07-22T22:50:15;21.90;1.00
10536;DHT22;5316;49.538;8.352;2023-07-22T22:52:43;21.80;1.00
10536;DHT22;5316;49.538;8.352;2023-07-22T22:55:10;21.80;1.00
10536;DHT22;5316;49.538;8.352;2023-07-22T22:57:37;21.70;1.00
10536;DHT22;5316;49.538;8.352;2023-07-22T23:00:05;21.70;1.00
10536;DHT22;5316;49.538;8.352;2023-07-22T23:02:32;21.70;1.00
10536;DHT22;5316;49.538;8.352;2023-07-22T23:05:00;21.70;1.00
10536;DHT22;5316;49.538;8.352;2023-07-22T23:07:26;21.60;3.50
10536;DHT22;5316;49.538;8.352;2023-07-22T23:09:54;21.60;10.70
10536;DHT22;5316;49.538;8.352;2023-07-22T23:12:21;21.60;21.00
10536;DHT22;5316;49.538;8.352;2023-07-22T23:14:48;21.60;30.50
10536;DHT22;5316;49.538;8.352;2023-07-22T23:17:15;21.50;32.10
10536;DHT22;5316;49.538;8.352;2023-07-22T23:19:43;21.50;43.90
10536;DHT22;5316;49.538;8.352;2023-07-22T23:22:09;21.40;60.00
10536;DHT22;5316;49.538;8.352;2023-07-22T23:24:36;21.40;83.10
10536;DHT22;5316;49.538;8.352;2023-07-22T23:27:05;21.40;97.80
10536;DHT22;5316;49.538;8.352;2023-07-22T23:29:32;21.30;99.90
10536;DHT22;5316;49.538;8.352;2023-07-22T23:31:58;21.30;99.90
10536;DHT22;5316;49.538;8.352;2023-07-22T23:34:26;21.30;99.90
10536;DHT22;5316;49.538;8.352;2023-07-22T23:36:52;21.30;99.90
10536;DHT22;5316;49.538;8.352;2023-07-22T23:39:19;21.20;99.90
10536;DHT22;5316;49.538;8.352;2023-07-22T23:41:46;21.10;99.90
10536;DHT22;5316;49.538;8.352;2023-07-22T23:44:14;21.10;99.90
10536;DHT22;5316;49.538;8.352;2023-07-22T23:46:41;21.00;99.90
10536;DHT22;5316;49.538;8.352;2023-07-22T23:49:07;21.00;99.90
10536;DHT22;5316;49.538;8.352;2023-07-22T23:51:34;21.00;99.90
10536;DHT22;5316;49.538;8.352;2023-07-22T23:54:01;21.00;99.90
10536;DHT22;5316;49.538;8.352;2023-07-22T23:56:28;21.00;99.90
10536;DHT22;5316;49.538;8.352;2023-07-22T23:58:55;21.00;99.90
